Time;durP1;ratioP1;P1;durP2;ratioP2;P2;SDS_P1;SDS_P2;PMS_P1;PMS_P2;Temp;Humidity;BMP_temperature;BMP_pressure;BME280_temperature;BME280_humidity;BME280_pressure;Samples;Min_cycle;Max_cycle;Signal;HPM_P1;HPM_P2
2021/05/28 00:02:16;;;;;;;12.38;3.00;;;10.50;85.20;;;;;;5067223;28;20020;-85
2021/05/28 00:04:42;;;;;;;7.20;3.10;;;10.50;85.30;;;;;;5112402;28;20028;-85
2021/05/28 00:07:09;;;;;;;7.45;3.05;;;10.40;85.30;;;;;;5098176;28;20104;-85
2021/05/28 00:09:35;;;;;;;8.60;2.83;;;10.40;85.40;;;;;;5116136;28;20030;-85
2021/05/28 00:12:01;;;;;;;8.32;3.30;;;10.40;85.40;;;;;;5091839;28;20024;-85
2021/05/28 00:14:27;;;;;;;9.43;3.30;;;10.40;85.50;;;;;;5097895;28;20024;-85
2021/05/28 00:16:53;;;;;;;9.50;3.05;;;10.30;85.50;;;;;;5116272;28;20019;-85
2021/05/28 00:19:19;;;;;;;5.38;2.97;;;10.30;85.60;;;;;;5064383;28;20545;-85
2021/05/28 00:21:44;;;;;;;7.75;3.28;;;10.30;85.50;;;;;;5097884;28;20502;-85
2021/05/28 00:24:10;;;;;;;10.18;3.30;;;10.30;85.40;;;;;;5072263;28;20073;-85
2021/05/28 00:26:35;;;;;;;9.07;2.85;;;10.30;85.50;;;;;;5081005;28;20038;-85
2021/05/28 00:29:01;;;;;;;5.82;2.90;;;10.30;85.60;;;;;;5096631;28;20024;-85
2021/05/28 00:31:27;;;;;;;7.07;3.10;;;10.20;85.50;;;;;;5093746;28;20579;-84
2021/05/28 00:33:52;;;;;;;6.38;2.83;;;10.20;85.50;;;;;;5115065;28;20468;-84
2021/05/28 00:36:18;;;;;;;6.97;3.10;;;10.30;85.50;;;;;;5094309;28;20480;-85
2021/05/28 00:38:44;;;;;;;6.30;2.90;;;10.20;86.10;;;;;;5064283;28;20095;-85
2021/05/28 00:41:11;;;;;;;9.68;3.67;;;10.20;85.50;;;;;;5097393;28;20046;-85
2021/05/28 00:43:38;;;;;;;7.57;2.85;;;10.20;85.40;;;;;;5097168;28;20049;-85
2021/05/28 00:46:04;;;;;;;7.22;3.05;;;10.20;85.50;;;;;;5097214;28;20050;-85
2021/05/28 00:48:29;;;;;;;11.23;3.22;;;10.20;85.50;;;;;;5097478;28;20032;-84
2021/05/28 00:50:55;;;;;;;5.70;2.92;;;10.20;85.60;;;;;;5077739;28;20028;-85
2021/05/28 00:53:22;;;;;;;7.72;3.22;;;10.10;85.60;;;;;;5092097;28;20027;-85
2021/05/28 00:55:47;;;;;;;6.82;3.53;;;10.10;85.60;;;;;;5115686;28;20050;-85
2021/05/28 00:58:13;;;;;;;6.75;3.05;;;10.10;85.70;;;;;;5097312;28;20016;-85
2021/05/28 01:00:40;;;;;;;8.70;3.33;;;10.00;85.60;;;;;;5083066;28;20517;-85
2021/05/28 01:03:05;;;;;;;6.60;3.03;;;10.10;85.70;;;;;;5077173;28;20060;-85
2021/05/28 01:05:32;;;;;;;8.02;3.55;;;10.00;85.60;;;;;;5092371;28;20092;-85
2021/05/28 01:07:58;;;;;;;5.63;3.35;;;10.00;85.70;;;;;;5115033;28;20023;-85
2021/05/28 01:10:23;;;;;;;10.57;4.00;;;10.00;85.70;;;;;;5091302;28;20008;-85
2021/05/28 01:12:49;;;;;;;12.23;3.53;;;10.00;85.70;;;;;;5076849;28;20024;-85
2021/05/28 01:15:15;;;;;;;7.50;3.85;;;10.00;85.80;;;;;;5094962;28;20020;-85
2021/05/28 01:17:41;;;;;;;9.20;3.85;;;9.90;85.80;;;;;;5076842;28;20028;-85
2021/05/28 01:20:09;;;;;;;8.00;3.70;;;9.90;85.80;;;;;;5096304;28;20016;-85
2021/05/28 01:22:35;;;;;;;8.60;3.33;;;9.90;85.80;;;;;;5114793;28;20030;-85
2021/05/28 01:25:01;;;;;;;8.00;3.97;;;9.80;85.80;;;;;;5060652;28;20093;-84
2021/05/28 01:27:28;;;;;;;7.35;3.80;;;9.80;86.40;;;;;;5076860;28;20025;-85
2021/05/28 01:29:53;;;;;;;11.40;4.38;;;9.80;85.70;;;;;;5076823;28;20047;-85
2021/05/28 01:32:19;;;;;;;7.35;3.47;;;9.80;85.70;;;;;;5081866;28;20464;-85
2021/05/28 01:34:45;;;;;;;9.93;3.75;;;9.70;85.60;;;;;;5096797;28;20028;-85
2021/05/28 01:37:11;;;;;;;8.88;3.80;;;9.70;85.70;;;;;;5109775;28;20024;-85
2021/05/28 01:39:47;;;;;;;9.25;4.15;;;9.70;85.90;;;;;;5094756;28;20495;-85
2021/05/28 01:42:13;;;;;;;8.18;3.80;;;9.70;86.00;;;;;;5094863;28;20058;-85
2021/05/28 01:44:39;;;;;;;10.32;3.60;;;9.60;86.00;;;;;;5114996;28;20031;-85
2021/05/28 01:47:04;;;;;;;7.65;4.00;;;9.70;86.60;;;;;;5113442;28;20051;-85
2021/05/28 01:49:30;;;;;;;13.70;4.38;;;9.60;86.00;;;;;;5076302;28;20029;-85
2021/05/28 01:51:56;;;;;;;7.55;3.30;;;9.60;86.00;;;;;;5076202;28;20032;-85
2021/05/28 01:54:24;;;;;;;10.63;3.88;;;9.60;86.00;;;;;;5085993;28;20036;-85
2021/05/28 01:56:51;;;;;;;11.30;3.70;;;9.60;86.10;;;;;;5114730;28;20019;-85
2021/05/28 01:59:35;;;;;;;10.68;3.80;;;9.50;86.20;;;;;;5114678;28;20039;-85
2021/05/28 02:02:01;;;;;;;9.77;4.93;;;9.50;86.30;;;;;;5096488;28;20024;-85
2021/05/28 02:04:27;;;;;;;8.20;3.72;;;9.50;86.30;;;;;;5096283;28;20062;-85
2021/05/28 02:06:54;;;;;;;10.57;4.05;;;9.50;86.40;;;;;;5111901;28;20032;-85
2021/05/28 02:09:20;;;;;;;10.90;4.40;;;9.50;86.50;;;;;;5075388;28;20505;-85
2021/05/28 02:11:45;;;;;;;12.95;4.28;;;9.50;86.40;;;;;;5065575;28;20063;-85
2021/05/28 02:14:11;;;;;;;11.40;4.35;;;9.40;86.30;;;;;;5059448;28;20027;-85
2021/05/28 02:16:37;;;;;;;10.60;3.95;;;9.40;86.40;;;;;;5095310;28;20042;-85
2021/05/28 02:19:04;;;;;;;7.57;3.45;;;9.40;86.40;;;;;;5093632;28;20032;-85
2021/05/28 02:21:30;;;;;;;9.90;4.05;;;9.40;86.30;;;;;;5092600;28;20039;-85
2021/05/28 02:23:57;;;;;;;8.27;4.20;;;9.40;86.30;;;;;;5094087;28;20032;-85
2021/05/28 02:26:23;;;;;;;11.90;4.68;;;9.40;86.30;;;;;;5095899;28;20063;-85
2021/05/28 02:28:49;;;;;;;11.00;4.57;;;9.40;86.40;;;;;;5060213;28;20059;-85
2021/05/28 02:31:14;;;;;;;8.75;4.05;;;9.30;86.50;;;;;;5075522;28;20508;-85
2021/05/28 02:33:40;;;;;;;10.10;4.38;;;9.30;86.60;;;;;;5093592;28;20032;-85
2021/05/28 02:36:07;;;;;;;7.93;4.28;;;9.30;86.60;;;;;;5107294;28;20020;-85
2021/05/28 02:38:33;;;;;;;9.55;4.22;;;9.30;86.50;;;;;;5095663;28;20160;-85
2021/05/28 02:40:59;;;;;;;10.13;4.70;;;9.20;86.50;;;;;;5095689;28;20039;-84
2021/05/28 02:43:25;;;;;;;8.45;4.75;;;9.20;86.40;;;;;;5083192;28;20115;-84
2021/05/28 02:45:52;;;;;;;7.88;4.60;;;9.20;86.50;;;;;;5095839;28;20067;-85
2021/05/28 02:48:18;;;;;;;8.50;4.60;;;9.10;86.60;;;;;;5067131;28;20019;-85
2021/05/28 02:50:44;;;;;;;11.05;4.95;;;9.10;86.70;;;;;;5058462;28;20400;-84
2021/05/28 02:53:10;;;;;;;9.55;5.28;;;9.10;87.40;;;;;;5094020;28;20045;-85
2021/05/28 02:55:36;;;;;;;8.52;5.05;;;9.10;87.30;;;;;;5068735;28;20114;-85
2021/05/28 02:58:02;;;;;;;8.85;4.78;;;9.00;86.70;;;;;;5058552;28;20119;-85
2021/05/28 03:00:28;;;;;;;10.85;4.60;;;9.00;86.60;;;;;;5058377;28;20028;-85
2021/05/28 03:02:53;;;;;;;11.68;4.75;;;9.00;86.50;;;;;;5058607;28;20039;-85
2021/05/28 03:05:19;;;;;;;9.63;5.10;;;9.00;87.00;;;;;;5047897;28;20027;-85
2021/05/28 03:07:45;;;;;;;10.40;5.07;;;9.00;86.50;;;;;;5058399;28;20020;-85
2021/05/28 03:10:11;;;;;;;11.55;5.68;;;9.00;86.50;;;;;;5047918;28;20020;-85
2021/05/28 03:12:37;;;;;;;11.93;5.90;;;8.90;86.50;;;;;;5078580;28;20032;-84
2021/05/28 03:15:05;;;;;;;9.05;5.32;;;8.90;86.50;;;;;;5095283;28;20032;-84
2021/05/28 03:17:31;;;;;;;7.25;4.97;;;8.90;86.60;;;;;;5112627;28;20024;-85
2021/05/28 03:19:57;;;;;;;8.82;5.00;;;8.80;86.70;;;;;;5078660;28;20161;-85
2021/05/28 03:22:32;;;;;;;11.98;5.20;;;8.80;86.70;;;;;;5075315;28;20036;-85
2021/05/28 03:25:04;;;;;;;10.68;5.40;;;8.70;86.60;;;;;;5076417;28;20036;-85
2021/05/28 03:27:30;;;;;;;11.40;5.60;;;8.80;86.70;;;;;;5091736;28;20141;-85
2021/05/28 03:29:56;;;;;;;10.88;5.45;;;8.80;86.70;;;;;;5075070;28;20032;-85
2021/05/28 03:32:22;;;;;;;10.63;4.93;;;8.70;86.70;;;;;;5078376;28;20441;-84
2021/05/28 03:34:47;;;;;;;10.70;5.53;;;8.70;86.80;;;;;;5117521;28;20026;-85
2021/05/28 03:37:13;;;;;;;13.60;5.50;;;8.70;86.80;;;;;;5099019;28;20035;-85
2021/05/28 03:39:39;;;;;;;8.05;4.95;;;8.70;86.80;;;;;;5099160;28;20032;-85
2021/05/28 03:42:05;;;;;;;10.00;5.05;;;8.70;86.80;;;;;;5099104;28;20032;-84
2021/05/28 03:44:31;;;;;;;9.68;6.10;;;8.70;86.90;;;;;;5098884;28;20420;-85
2021/05/28 03:46:57;;;;;;;9.98;5.65;;;8.70;86.90;;;;;;5078312;28;20058;-85
2021/05/28 03:49:22;;;;;;;9.65;5.25;;;8.70;86.80;;;;;;5089978;28;20073;-84
2021/05/28 03:51:48;;;;;;;10.27;5.05;;;8.60;86.70;;;;;;5070598;28;20024;-85
2021/05/28 03:54:14;;;;;;;8.93;5.10;;;8.70;86.70;;;;;;5075153;28;20051;-85
2021/05/28 03:56:39;;;;;;;7.40;4.88;;;8.60;86.60;;;;;;5058508;28;20039;-85
2021/05/28 03:59:05;;;;;;;11.75;5.22;;;8.70;86.60;;;;;;5075478;28;20029;-85
2021/05/28 04:01:31;;;;;;;10.60;5.57;;;8.70;86.50;;;;;;5042054;28;20028;-84
2021/05/28 04:03:57;;;;;;;8.00;5.60;;;8.70;86.50;;;;;;5075081;28;20116;-84
2021/05/28 04:06:22;;;;;;;10.48;5.63;;;8.70;86.60;;;;;;5074932;28;20358;-85
2021/05/28 04:08:48;;;;;;;11.55;5.65;;;8.70;86.70;;;;;;5074870;28;20029;-78
2021/05/28 04:11:14;;;;;;;9.50;6.22;;;8.70;86.70;;;;;;5078966;28;20040;-79
2021/05/28 04:13:39;;;;;;;12.32;6.70;;;8.70;86.70;;;;;;5058688;28;20107;-78
2021/05/28 04:16:05;;;;;;;11.73;6.82;;;8.70;86.80;;;;;;5074939;28;20062;-78
2021/05/28 04:18:31;;;;;;;12.25;6.90;;;8.70;87.00;;;;;;5074800;28;20508;-78
2021/05/28 04:20:57;;;;;;;11.23;7.20;;;8.80;87.20;;;;;;5083558;28;20127;-78
2021/05/28 04:23:22;;;;;;;9.50;6.25;;;8.80;87.40;;;;;;5084978;28;20035;-78
2021/05/28 04:25:48;;;;;;;14.20;7.03;;;8.90;87.40;;;;;;5094857;28;20032;-78
2021/05/28 04:28:15;;;;;;;10.85;7.40;;;8.90;87.60;;;;;;5096287;28;20052;-78
2021/05/28 04:30:41;;;;;;;19.73;7.70;;;9.00;87.80;;;;;;5071182;28;20115;-77
2021/05/28 04:33:06;;;;;;;11.20;6.78;;;9.10;88.00;;;;;;5072050;28;20056;-78
2021/05/28 04:35:33;;;;;;;12.43;6.85;;;9.10;88.10;;;;;;5074392;28;20040;-78
2021/05/28 04:37:59;;;;;;;15.90;7.93;;;9.20;88.20;;;;;;5074360;28;20111;-78
2021/05/28 04:40:26;;;;;;;12.57;7.53;;;9.30;88.40;;;;;;5057755;28;20131;-78
2021/05/28 04:42:52;;;;;;;24.23;11.63;;;9.30;88.60;;;;;;5057778;28;20067;-78
2021/05/28 04:45:18;;;;;;;35.40;12.63;;;9.40;88.80;;;;;;5052492;28;20056;-78
2021/05/28 04:47:44;;;;;;;23.35;11.55;;;9.50;89.20;;;;;;5094343;28;20028;-78
2021/05/28 04:50:10;;;;;;;36.85;16.40;;;9.40;89.70;;;;;;5089374;28;20051;-78
2021/05/28 04:52:36;;;;;;;22.13;12.48;;;9.50;90.00;;;;;;5077679;28;20079;-78
2021/05/28 04:55:02;;;;;;;25.05;13.73;;;9.60;90.20;;;;;;5061003;28;20028;-78
2021/05/28 04:57:28;;;;;;;38.97;15.73;;;9.60;90.20;;;;;;5076210;28;20114;-77
2021/05/28 04:59:53;;;;;;;36.08;15.27;;;9.70;90.30;;;;;;5115939;28;20501;-78
2021/05/28 05:02:19;;;;;;;25.65;15.57;;;9.70;90.20;;;;;;5097473;28;20031;-77
2021/05/28 05:04:44;;;;;;;29.48;13.52;;;9.80;90.30;;;;;;5090342;28;20107;-78
2021/05/28 05:07:10;;;;;;;43.83;15.35;;;9.80;90.30;;;;;;5095850;28;20096;-78
2021/05/28 05:09:36;;;;;;;22.85;12.82;;;9.80;90.40;;;;;;5097610;28;20027;-78
2021/05/28 05:12:01;;;;;;;33.20;13.77;;;9.80;90.40;;;;;;5097407;28;20038;-78
2021/05/28 05:14:27;;;;;;;27.60;14.05;;;9.90;90.40;;;;;;5093776;28;20035;-79
2021/05/28 05:16:52;;;;;;;42.00;16.25;;;10.00;90.30;;;;;;5069772;28;20078;-78
2021/05/28 05:19:18;;;;;;;30.98;14.02;;;10.00;90.30;;;;;;5100102;28;20031;-77
2021/05/28 05:21:44;;;;;;;23.92;12.82;;;10.00;90.40;;;;;;5078202;28;20488;-78
2021/05/28 05:24:10;;;;;;;27.45;13.63;;;10.00;90.40;;;;;;5097173;28;20066;-78
2021/05/28 05:26:37;;;;;;;29.95;14.30;;;10.10;90.30;;;;;;5115594;28;20068;-78
2021/05/28 05:29:03;;;;;;;27.13;14.95;;;10.20;90.30;;;;;;5115202;28;20016;-79
2021/05/28 05:31:29;;;;;;;28.30;13.98;;;10.20;90.30;;;;;;5077975;28;20103;-78
2021/05/28 05:33:55;;;;;;;112.13;17.38;;;10.20;90.30;;;;;;5113439;28;20379;-78
2021/05/28 05:36:21;;;;;;;113.25;18.50;;;10.20;90.20;;;;;;5091717;28;20035;-78
2021/05/28 05:38:47;;;;;;;55.60;18.73;;;10.20;90.20;;;;;;5094665;28;20034;-78
2021/05/28 05:41:12;;;;;;;66.15;17.85;;;10.10;90.30;;;;;;5043274;28;20035;-78
2021/05/28 05:43:38;;;;;;;46.13;15.75;;;10.10;90.40;;;;;;5076519;28;20043;-79
2021/05/28 05:46:04;;;;;;;98.97;17.65;;;10.10;90.40;;;;;;5093778;28;20112;-78
2021/05/28 05:48:29;;;;;;;40.92;16.15;;;10.10;90.40;;;;;;5079985;28;20136;-78
2021/05/28 05:50:55;;;;;;;35.75;16.50;;;10.10;90.50;;;;;;5096948;28;20027;-79
2021/05/28 05:53:21;;;;;;;32.97;14.90;;;10.10;90.60;;;;;;5114366;28;20414;-79
2021/05/28 05:55:47;;;;;;;112.25;20.05;;;10.10;90.70;;;;;;5076426;28;20032;-80
2021/05/28 05:58:12;;;;;;;119.60;17.25;;;10.20;90.60;;;;;;5059563;28;20154;-80
2021/05/28 06:00:38;;;;;;;107.90;16.52;;;10.20;90.60;;;;;;5043065;28;20060;-80
2021/05/28 06:03:04;;;;;;;131.98;17.45;;;10.20;90.60;;;;;;5059739;28;20036;-79
2021/05/28 06:05:29;;;;;;;36.75;14.60;;;10.20;90.50;;;;;;5076066;28;20036;-79
2021/05/28 06:07:56;;;;;;;257.52;19.35;;;10.20;90.50;;;;;;5076155;28;20372;-79
2021/05/28 06:10:21;;;;;;;167.75;17.33;;;10.20;90.50;;;;;;5094140;28;20024;-80
2021/05/28 06:12:47;;;;;;;165.63;17.90;;;10.20;90.50;;;;;;5075882;28;20120;-79
2021/05/28 06:15:13;;;;;;;51.95;15.35;;;10.20;90.50;;;;;;5094371;28;20025;-79
2021/05/28 06:17:39;;;;;;;157.45;18.05;;;10.30;90.40;;;;;;5094240;28;20149;-79
2021/05/28 06:20:05;;;;;;;57.38;15.75;;;10.20;90.30;;;;;;5042761;28;20119;-78
2021/05/28 06:22:32;;;;;;;137.70;16.88;;;10.20;90.50;;;;;;5075990;28;20542;-79
2021/05/28 06:24:57;;;;;;;38.53;15.32;;;10.20;90.40;;;;;;5094795;28;20027;-79
2021/05/28 06:27:24;;;;;;;53.92;15.20;;;10.30;90.40;;;;;;5096014;28;20149;-79
2021/05/28 06:29:50;;;;;;;42.40;16.27;;;10.30;90.40;;;;;;5114335;28;20525;-79
2021/05/28 06:32:15;;;;;;;31.55;15.10;;;10.30;90.40;;;;;;5095989;28;20098;-79
2021/05/28 06:34:42;;;;;;;62.75;15.45;;;10.40;90.40;;;;;;5072181;28;20042;-78
2021/05/28 06:37:07;;;;;;;20.70;12.77;;;10.40;90.40;;;;;;5093704;28;20107;-79
2021/05/28 06:39:33;;;;;;;40.42;15.15;;;10.40;90.30;;;;;;5042383;28;20708;-79
2021/05/28 06:41:59;;;;;;;55.65;15.00;;;10.50;90.30;;;;;;5093296;28;20055;-79
2021/05/28 06:44:24;;;;;;;71.97;17.35;;;10.50;90.20;;;;;;5093406;28;20070;-79
2021/05/28 06:46:54;;;;;;;44.80;17.05;;;10.40;90.40;;;;;;5058667;28;20063;-80
2021/05/28 06:49:20;;;;;;;62.10;14.25;;;10.40;90.60;;;;;;5058848;28;20028;-79
2021/05/28 06:51:47;;;;;;;58.25;14.93;;;10.50;90.60;;;;;;5109598;28;20050;-79
2021/05/28 06:54:13;;;;;;;31.67;15.60;;;10.50;90.40;;;;;;5091580;28;20083;-79
2021/05/28 06:56:40;;;;;;;22.65;15.25;;;10.50;90.40;;;;;;5110769;28;20078;-80
2021/05/28 06:59:07;;;;;;;72.43;17.55;;;10.60;90.40;;;;;;5113011;28;20028;-79
2021/05/28 07:01:33;;;;;;;24.02;15.98;;;10.60;90.40;;;;;;5077081;28;20439;-80
2021/05/28 07:04:01;;;;;;;26.17;16.67;;;10.60;90.50;;;;;;5092276;28;20110;-79
2021/05/28 07:06:28;;;;;;;21.20;15.50;;;10.70;90.50;;;;;;5101224;28;20024;-78
2021/05/28 07:08:53;;;;;;;16.15;12.85;;;10.80;90.40;;;;;;5108729;28;20099;-78
2021/05/28 07:11:19;;;;;;;16.95;11.95;;;11.00;90.60;;;;;;5059145;28;20050;-78
2021/05/28 07:13:45;;;;;;;23.48;13.73;;;11.00;90.00;;;;;;5093382;28;20035;-78
2021/05/28 07:16:10;;;;;;;20.20;13.57;;;11.00;89.20;;;;;;5077281;28;20034;-78
2021/05/28 07:18:36;;;;;;;20.33;13.35;;;10.90;89.30;;;;;;5095396;28;20032;-78
2021/05/28 07:21:02;;;;;;;18.55;13.70;;;10.90;89.60;;;;;;5078576;28;20047;-78
2021/05/28 07:23:29;;;;;;;18.55;13.27;;;10.90;89.70;;;;;;5113457;28;20027;-78
2021/05/28 07:25:55;;;;;;;31.05;13.15;;;11.00;90.10;;;;;;5075652;28;20024;-78
2021/05/28 07:28:21;;;;;;;16.98;11.80;;;11.00;89.70;;;;;;5058642;28;20036;-78
2021/05/28 07:30:47;;;;;;;14.50;12.15;;;11.00;89.70;;;;;;5092530;28;20024;-78
2021/05/28 07:33:13;;;;;;;15.45;12.77;;;11.10;89.30;;;;;;5113566;28;20028;-78
2021/05/28 07:35:39;;;;;;;22.05;12.80;;;11.10;89.30;;;;;;5089547;28;20024;-78
2021/05/28 07:38:05;;;;;;;20.60;13.23;;;11.20;88.90;;;;;;5102481;28;20023;-78
2021/05/28 07:40:30;;;;;;;16.13;14.15;;;11.20;88.60;;;;;;5094387;28;20031;-78
2021/05/28 07:42:56;;;;;;;16.48;12.68;;;11.30;88.50;;;;;;5063319;28;20718;-78
2021/05/28 07:45:22;;;;;;;18.92;13.43;;;11.40;88.20;;;;;;5049480;28;20405;-79
2021/05/28 07:47:48;;;;;;;16.58;12.65;;;11.50;88.00;;;;;;5110049;28;20069;-79
2021/05/28 07:50:13;;;;;;;15.82;11.68;;;11.60;87.70;;;;;;5078100;28;20122;-78
2021/05/28 07:52:39;;;;;;;17.60;12.07;;;11.70;87.60;;;;;;5086235;28;20020;-80
2021/05/28 07:55:05;;;;;;;13.88;11.55;;;11.80;87.40;;;;;;5092971;28;20056;-79
2021/05/28 07:57:31;;;;;;;14.50;11.80;;;11.90;87.00;;;;;;5070182;28;20047;-80
2021/05/28 07:59:57;;;;;;;18.73;12.20;;;12.00;86.30;;;;;;5092471;28;20028;-80
2021/05/28 08:02:23;;;;;;;17.95;13.25;;;12.00;85.40;;;;;;5074965;28;20035;-78
2021/05/28 08:04:48;;;;;;;18.27;12.88;;;12.00;85.00;;;;;;5074928;28;20034;-78
2021/05/28 08:07:14;;;;;;;19.33;14.70;;;12.00;85.50;;;;;;5094316;28;20666;-78
2021/05/28 08:09:39;;;;;;;16.95;13.48;;;12.10;85.40;;;;;;5093045;28;20054;-78
2021/05/28 08:12:06;;;;;;;23.42;14.75;;;12.20;84.70;;;;;;5094288;28;20052;-77
2021/05/28 08:14:31;;;;;;;20.88;14.35;;;12.10;84.10;;;;;;5097703;28;20028;-78
2021/05/28 08:16:57;;;;;;;18.85;14.10;;;12.20;84.30;;;;;;5078210;28;20023;-80
2021/05/28 08:19:23;;;;;;;19.00;13.55;;;12.30;84.20;;;;;;5087980;28;20024;-80
2021/05/28 08:21:49;;;;;;;18.88;15.23;;;12.40;83.80;;;;;;5100323;28;20058;-81
2021/05/28 08:24:15;;;;;;;16.65;11.35;;;12.50;84.00;;;;;;5061323;28;20503;-81
2021/05/28 08:26:41;;;;;;;14.68;11.70;;;12.70;83.90;;;;;;5061627;28;20028;-82
2021/05/28 08:29:08;;;;;;;16.10;12.88;;;13.00;83.40;;;;;;5078482;28;20024;-81
2021/05/28 08:31:34;;;;;;;15.75;12.27;;;13.30;82.80;;;;;;5062566;28;20020;-81
2021/05/28 08:34:00;;;;;;;14.35;12.13;;;13.60;81.90;;;;;;5098229;28;20101;-80
2021/05/28 08:36:25;;;;;;;16.77;12.32;;;14.00;80.70;;;;;;5077824;28;20480;-80
2021/05/28 08:38:51;;;;;;;15.02;11.68;;;14.60;79.30;;;;;;5061254;28;20029;-81
2021/05/28 08:41:18;;;;;;;12.30;10.73;;;14.90;77.90;;;;;;5077830;28;20476;-81
2021/05/28 08:43:44;;;;;;;12.27;10.15;;;15.30;76.70;;;;;;5077739;28;20032;-80
2021/05/28 08:46:13;;;;;;;13.82;10.65;;;15.60;75.40;;;;;;5090385;28;20553;-86
2021/05/28 08:48:39;;;;;;;13.82;10.15;;;15.80;73.00;;;;;;5094681;28;20036;-85
2021/05/28 08:51:05;;;;;;;10.63;9.48;;;15.90;72.60;;;;;;5094619;28;20028;-86
2021/05/28 08:53:30;;;;;;;10.13;8.43;;;16.00;73.00;;;;;;5094678;28;20480;-87
2021/05/28 08:55:56;;;;;;;13.70;8.82;;;16.20;72.70;;;;;;5095814;28;20032;-87
2021/05/28 08:58:23;;;;;;;12.80;8.98;;;16.30;71.90;;;;;;5077650;28;20029;-86
2021/05/28 09:00:49;;;;;;;12.77;8.10;;;16.40;71.10;;;;;;5095748;28;20024;-84
2021/05/28 09:03:31;;;;;;;11.80;9.05;;;16.40;70.90;;;;;;5077406;28;20038;-86
2021/05/28 09:05:56;;;;;;;10.95;8.25;;;16.50;70.10;;;;;;5095429;28;20380;-86
2021/05/28 09:08:25;;;;;;;8.98;7.13;;;16.50;70.80;;;;;;5095557;28;20095;-86
2021/05/28 09:10:51;;;;;;;8.52;6.85;;;16.60;70.30;;;;;;5095405;28;20028;-86
2021/05/28 09:13:26;;;;;;;9.60;7.20;;;16.70;70.00;;;;;;5094164;28;20036;-86
2021/05/28 09:16:04;;;;;;;12.57;7.95;;;16.80;69.20;;;;;;5094010;28;20028;-87
2021/05/28 09:19:02;;;;;;;10.20;7.50;;;17.00;68.10;;;;;;5087267;28;20024;-86
2021/05/28 09:21:35;;;;;;;12.35;7.47;;;17.00;66.40;;;;;;5069449;28;20481;-86
2021/05/28 09:24:06;;;;;;;8.80;6.40;;;17.00;67.20;;;;;;5075015;28;20033;-87
2021/05/28 09:26:34;;;;;;;9.23;5.95;;;17.10;67.50;;;;;;5057634;28;20447;-86
2021/05/28 09:29:01;;;;;;;11.20;6.18;;;17.30;67.20;;;;;;5074910;28;20461;-87
2021/05/28 09:31:29;;;;;;;8.90;5.57;;;17.40;66.40;;;;;;5074699;28;20024;-87
2021/05/28 09:33:57;;;;;;;9.10;4.72;;;17.50;66.00;;;;;;5074174;28;20498;-86
2021/05/28 09:36:36;;;;;;;6.28;4.60;;;17.60;66.30;;;;;;5092470;28;20109;-87
2021/05/28 09:39:12;;;;;;;6.55;4.00;;;17.70;65.30;;;;;;5092886;28;20070;-86
2021/05/28 09:41:37;;;;;;;6.10;3.30;;;17.80;64.20;;;;;;5092832;28;20058;-85
2021/05/28 09:44:18;;;;;;;4.72;2.97;;;17.80;64.60;;;;;;5093569;28;20504;-86
2021/05/28 09:47:02;;;;;;;4.18;2.92;;;17.90;64.90;;;;;;5093443;28;20051;-86
2021/05/28 09:49:44;;;;;;;4.80;2.53;;;18.10;63.60;;;;;;5093541;28;20031;-87
2021/05/28 09:52:16;;;;;;;4.13;2.70;;;18.30;62.10;;;;;;5085716;28;20416;-86
2021/05/28 09:55:02;;;;;;;3.67;2.40;;;18.30;60.80;;;;;;5093405;28;20016;-86
2021/05/28 09:57:36;;;;;;;3.05;2.20;;;18.40;60.70;;;;;;5094655;28;20023;-86
2021/05/28 10:00:32;;;;;;;4.35;2.80;;;18.40;59.60;;;;;;5094688;28;20022;-87
2021/05/28 10:03:25;;;;;;;4.03;2.17;;;18.50;59.90;;;;;;5069510;28;20436;-89
2021/05/28 10:05:56;;;;;;;5.97;2.85;;;18.60;60.20;;;;;;5074063;28;20023;-87
2021/05/28 10:08:23;;;;;;;4.45;3.28;;;18.70;60.40;;;;;;5084113;28;20024;-86
2021/05/28 10:10:51;;;;;;;6.68;3.53;;;18.90;60.60;;;;;;5062239;28;20025;-86
2021/05/28 10:13:19;;;;;;;5.13;3.22;;;18.90;59.90;;;;;;5072724;28;20021;-83
2021/05/28 10:15:47;;;;;;;4.15;3.13;;;18.90;60.10;;;;;;5086332;28;20031;-82
2021/05/28 10:18:14;;;;;;;6.50;3.83;;;19.00;60.20;;;;;;5077027;28;20036;-84
2021/05/28 10:20:44;;;;;;;6.57;4.18;;;19.10;60.10;;;;;;5055828;28;20028;-85
2021/05/28 10:23:11;;;;;;;5.32;3.67;;;19.20;59.90;;;;;;5073554;28;20500;-87
2021/05/28 10:25:38;;;;;;;5.53;3.80;;;19.30;60.10;;;;;;5092218;28;20024;-84
2021/05/28 10:28:28;;;;;;;9.07;4.20;;;19.40;59.80;;;;;;5094417;28;20035;-85
2021/05/28 10:30:54;;;;;;;5.03;4.00;;;19.60;59.40;;;;;;5079483;28;20060;-84
2021/05/28 10:33:24;;;;;;;6.72;4.60;;;19.60;58.30;;;;;;5072422;28;20440;-86
2021/05/28 10:35:56;;;;;;;6.40;4.18;;;19.40;58.80;;;;;;5092402;28;20024;-83
2021/05/28 10:38:33;;;;;;;6.90;4.28;;;19.40;60.00;;;;;;5074714;28;20028;-83
2021/05/28 10:41:05;;;;;;;5.22;3.53;;;19.40;58.80;;;;;;5091993;28;20032;-82
2021/05/28 10:43:49;;;;;;;5.15;3.38;;;19.20;58.90;;;;;;5076477;28;20040;-84
2021/05/28 10:46:17;;;;;;;7.10;4.32;;;19.00;58.90;;;;;;5082474;28;20036;-84
2021/05/28 10:48:43;;;;;;;7.93;4.60;;;18.80;59.30;;;;;;5075724;28;20028;-85
2021/05/28 10:51:08;;;;;;;5.38;3.63;;;18.50;59.20;;;;;;5093817;28;20091;-85
2021/05/28 10:53:35;;;;;;;5.22;3.90;;;18.20;61.00;;;;;;5095051;28;20036;-85
2021/05/28 10:56:01;;;;;;;5.38;3.70;;;18.30;62.40;;;;;;5095688;28;20045;-84
2021/05/28 10:58:46;;;;;;;6.45;3.50;;;18.40;61.40;;;;;;5113828;28;20376;-85
2021/05/28 11:01:32;;;;;;;6.03;3.28;;;18.70;60.80;;;;;;5112048;28;20023;-82
2021/05/28 11:03:59;;;;;;;5.03;2.95;;;19.00;58.70;;;;;;5113696;28;20076;-85
2021/05/28 11:06:24;;;;;;;5.60;2.92;;;19.20;57.90;;;;;;5076221;28;20029;-84
2021/05/28 11:08:55;;;;;;;4.30;2.83;;;19.20;56.20;;;;;;5075113;28;20024;-83
2021/05/28 11:11:36;;;;;;;4.10;2.92;;;19.10;56.30;;;;;;5093166;28;20156;-83
2021/05/28 11:14:09;;;;;;;4.53;2.78;;;19.20;56.20;;;;;;5113785;28;20361;-85
2021/05/28 11:16:53;;;;;;;4.25;2.83;;;19.20;56.10;;;;;;5092269;28;20024;-84
2021/05/28 11:19:25;;;;;;;6.78;4.28;;;19.30;55.10;;;;;;5075328;28;20020;-85
2021/05/28 11:22:06;;;;;;;8.15;4.05;;;19.20;56.40;;;;;;5098511;28;20036;-84
2021/05/28 11:24:51;;;;;;;3.85;3.22;;;18.80;57.60;;;;;;5105253;28;20024;-84
2021/05/28 11:27:23;;;;;;;5.00;3.40;;;18.60;57.90;;;;;;5095398;28;20664;-84
2021/05/28 11:30:03;;;;;;;4.55;3.30;;;18.50;56.20;;;;;;5095235;28;20472;-85
2021/05/28 11:32:45;;;;;;;5.28;3.42;;;18.50;57.10;;;;;;5102474;28;20020;-84
2021/05/28 11:35:38;;;;;;;9.00;3.35;;;18.50;57.80;;;;;;5113385;28;20035;-84
2021/05/28 11:38:08;;;;;;;8.57;3.72;;;18.70;57.30;;;;;;5103322;28;20024;-84
2021/05/28 11:40:34;;;;;;;3.92;3.30;;;19.00;56.60;;;;;;5074873;28;20028;-84
2021/05/28 11:43:14;;;;;;;5.40;3.50;;;19.20;56.30;;;;;;5074968;28;20500;-84
2021/05/28 11:45:47;;;;;;;5.30;4.78;;;19.50;56.00;;;;;;5074652;28;20044;-83
2021/05/28 11:48:18;;;;;;;8.27;5.35;;;19.70;55.50;;;;;;5074898;28;20024;-84
2021/05/28 11:50:49;;;;;;;9.35;4.88;;;19.90;55.00;;;;;;5075073;28;20499;-84
2021/05/28 11:53:15;;;;;;;8.35;5.55;;;19.70;55.00;;;;;;5077035;28;20020;-83
2021/05/28 11:55:47;;;;;;;8.40;4.90;;;19.40;56.10;;;;;;5062017;28;20069;-83
2021/05/28 11:58:14;;;;;;;6.50;4.50;;;19.40;56.50;;;;;;5096470;28;20537;-83
2021/05/28 12:00:41;;;;;;;5.20;4.00;;;19.60;57.10;;;;;;5045007;28;20024;-83
2021/05/28 12:03:07;;;;;;;5.93;4.13;;;19.80;55.50;;;;;;5096466;28;20473;-83
2021/05/28 12:05:36;;;;;;;5.50;3.50;;;19.90;54.00;;;;;;5096562;28;20024;-83
2021/05/28 12:08:11;;;;;;;4.43;3.85;;;20.00;52.40;;;;;;5078203;28;20095;-83
2021/05/28 12:10:42;;;;;;;5.18;3.50;;;20.10;53.20;;;;;;5078372;28;20020;-83
2021/05/28 12:13:16;;;;;;;5.43;3.42;;;20.20;53.40;;;;;;5096317;28;20024;-84
2021/05/28 12:15:47;;;;;;;4.45;3.15;;;20.50;52.70;;;;;;5078266;28;20016;-84
2021/05/28 12:18:13;;;;;;;5.63;3.20;;;20.50;50.80;;;;;;5096257;28;20043;-82
2021/05/28 12:20:39;;;;;;;4.85;2.60;;;20.30;51.50;;;;;;5096143;28;20468;-82
2021/05/28 12:23:13;;;;;;;3.95;3.03;;;20.40;51.90;;;;;;5078144;28;20028;-82
2021/05/28 12:25:44;;;;;;;4.68;1.98;;;20.60;51.70;;;;;;5095936;28;20099;-82
2021/05/28 12:28:16;;;;;;;5.35;2.47;;;20.90;51.30;;;;;;5077700;28;20020;-82
2021/05/28 12:30:44;;;;;;;2.00;1.80;;;21.10;50.50;;;;;;5095826;28;20020;-82
2021/05/28 12:33:10;;;;;;;1.67;1.58;;;21.30;50.10;;;;;;5061257;28;20503;-82
2021/05/28 12:35:37;;;;;;;1.40;1.30;;;21.30;47.80;;;;;;5077911;28;20439;-83
2021/05/28 12:38:11;;;;;;;2.92;2.05;;;21.30;46.70;;;;;;5061395;28;20040;-83
2021/05/28 12:40:43;;;;;;;3.30;2.35;;;21.20;45.80;;;;;;5088651;28;20073;-82
2021/05/28 12:43:09;;;;;;;2.90;2.22;;;21.20;47.00;;;;;;5077703;28;20020;-82
2021/05/28 12:45:40;;;;;;;3.88;1.88;;;21.30;48.10;;;;;;5060745;28;20059;-83